Time;durP1;ratioP1;P1;durP2;ratioP2;P2;SDS_P1;SDS_P2;PMS_P1;PMS_P2;Temp;Humidity;BMP_temperature;BMP_pressure;BME280_temperature;BME280_humidity;BME280_pressure;Samples;Min_cycle;Max_cycle;Signal;HPM_P1;HPM_P2
2023/03/03 00:00:06;;;;;;;33.07;28.03;;;;;;;7.21;100.00;101884.19;2064373;28;20662;-63
2023/03/03 00:01:07;;;;;;;31.33;26.37;;;;;;;7.69;100.00;101952.03;2070969;28;20853;-63
2023/03/03 00:02:07;;;;;;;31.80;27.33;;;;;;;7.69;100.00;101952.81;2072099;28;20447;-63
2023/03/03 00:03:11;;;;;;;32.43;26.50;;;;;;;7.69;100.00;101949.28;2072292;28;20682;-63
2023/03/03 00:04:11;;;;;;;31.85;26.77;;;;;;;7.65;100.00;101940.97;2071772;28;20210;-63
2023/03/03 00:05:14;;;;;;;33.17;26.93;;;;;;;7.61;100.00;101940.16;2072121;28;20201;-63
2023/03/03 00:06:14;;;;;;;32.80;27.20;;;;;;;7.65;100.00;101951.22;2071263;28;20214;-63
2023/03/03 00:07:21;;;;;;;32.60;27.43;;;;;;;7.63;100.00;101945.28;2070657;28;20480;-63
2023/03/03 00:08:22;;;;;;;32.03;27.00;;;;;;;7.00;100.00;101845.41;2067315;28;20227;-63
2023/03/03 00:09:22;;;;;;;35.00;27.77;;;;;;;7.64;100.00;101941.34;2069724;28;20192;-63
2023/03/03 00:10:22;;;;;;;32.47;27.70;;;;;;;7.59;100.00;101936.97;2071529;28;20272;-63
2023/03/03 00:11:23;;;;;;;31.83;27.53;;;;;;;7.67;100.00;101941.38;2073716;28;20210;-64
2023/03/03 00:12:27;;;;;;;32.57;27.60;;;;;;;7.07;100.00;101856.50;2072203;28;20206;-64
2023/03/03 00:13:30;;;;;;;33.03;27.95;;;;;;;7.68;100.00;101945.72;2073139;28;20198;-63
2023/03/03 00:14:32;;;;;;;35.10;28.70;;;;;;;7.70;100.00;101950.88;2078216;28;20662;-63
2023/03/03 00:15:32;;;;;;;30.73;26.55;;;;;;;7.75;100.00;101937.50;2067380;28;20176;-64
2023/03/03 00:16:39;;;;;;;34.03;27.90;;;;;;;7.78;100.00;101938.69;2066637;28;20175;-63
2023/03/03 00:17:40;;;;;;;34.28;28.02;;;;;;;7.77;100.00;101943.44;2072921;28;20202;-63
2023/03/03 00:18:46;;;;;;;34.23;28.83;;;;;;;7.70;100.00;101929.56;2073974;28;20191;-63
2023/03/03 00:19:47;;;;;;;33.67;28.33;;;;;;;6.58;100.00;101748.53;2067816;28;20246;-63
2023/03/03 00:20:56;;;;;;;36.50;29.40;;;;;;;7.63;100.00;101923.22;2073178;28;20273;-63
2023/03/03 00:21:57;;;;;;;34.55;28.88;;;;;;;7.72;100.00;101934.72;2073689;28;20447;-63
2023/03/03 00:23:14;;;;;;;35.80;28.80;;;;;;;7.71;100.00;101935.88;2070946;28;20717;-63
2023/03/03 00:24:22;;;;;;;35.63;28.93;;;;;;;7.74;100.00;101935.13;2072664;28;20212;-63
2023/03/03 00:25:23;;;;;;;35.93;28.93;;;;;;;7.72;100.00;101937.47;2072838;28;20968;-63
2023/03/03 00:26:37;;;;;;;36.20;30.73;;;;;;;7.71;100.00;101935.88;2071978;28;20497;-64
2023/03/03 00:27:37;;;;;;;36.85;29.83;;;;;;;7.65;100.00;101921.66;2073529;28;20547;-63
2023/03/03 00:28:49;;;;;;;36.77;31.20;;;;;;;7.72;100.00;101938.28;2072948;28;20216;-63
2023/03/03 00:29:54;;;;;;;35.17;29.87;;;;;;;7.72;100.00;101941.03;2069157;28;20652;-63
2023/03/03 00:30:58;;;;;;;37.45;30.83;;;;;;;7.75;100.00;101936.72;2070486;28;20445;-64
2023/03/03 00:32:14;;;;;;;36.13;30.02;;;;;;;7.71;100.00;101933.94;2069942;28;20216;-63
2023/03/03 00:33:26;;;;;;;37.22;30.63;;;;;;;7.78;100.00;101933.19;2066540;28;20194;-63
2023/03/03 00:34:29;;;;;;;34.40;30.00;;;;;;;7.77;100.00;101926.06;2067541;28;20676;-63
2023/03/03 00:35:34;;;;;;;36.03;28.85;;;;;;;7.44;100.00;101873.78;2071960;28;20253;-63
2023/03/03 00:36:40;;;;;;;33.33;28.33;;;;;;;7.78;100.00;101924.91;2073312;28;20190;-63
2023/03/03 00:37:41;;;;;;;33.80;28.03;;;;;;;7.76;100.00;101927.25;2077474;28;20918;-63
2023/03/03 00:38:42;;;;;;;35.07;29.37;;;;;;;7.66;100.00;101909.44;2080642;28;20446;-64
2023/03/03 00:39:42;;;;;;;34.67;28.67;;;;;;;7.78;100.00;101925.69;2080023;28;20719;-63
2023/03/03 00:40:44;;;;;;;34.37;29.33;;;;;;;7.76;100.00;101916.22;2072598;28;20599;-63
2023/03/03 00:41:44;;;;;;;34.23;29.03;;;;;;;7.82;100.00;101923.78;2073725;28;20559;-64
2023/03/03 00:42:50;;;;;;;33.23;28.23;;;;;;;7.86;100.00;101916.31;2073499;28;20462;-63
2023/03/03 00:43:51;;;;;;;30.97;26.67;;;;;;;7.20;100.00;101813.69;2065780;28;20197;-63
2023/03/03 00:44:59;;;;;;;32.50;26.60;;;;;;;7.81;100.00;101913.91;2069810;28;20449;-63
2023/03/03 00:45:59;;;;;;;35.63;28.20;;;;;;;7.84;100.00;101915.88;2070627;28;20459;-63
2023/03/03 00:47:17;;;;;;;31.03;26.63;;;;;;;7.84;100.00;101924.16;2073422;28;20536;-63
2023/03/03 00:48:27;;;;;;;33.27;27.27;;;;;;;7.89;100.00;101915.53;2068460;28;20569;-63
2023/03/03 00:49:27;;;;;;;32.03;26.77;;;;;;;7.88;100.00;101913.97;2064966;28;20447;-64
2023/03/03 00:50:33;;;;;;;31.73;26.23;;;;;;;7.84;100.00;101917.88;2069538;28;20548;-63
2023/03/03 00:51:34;;;;;;;34.13;27.50;;;;;;;7.86;100.00;101910.81;2072735;28;20599;-63
2023/03/03 00:52:50;;;;;;;35.47;26.80;;;;;;;7.86;100.00;101910.00;2068485;28;20450;-63
2023/03/03 00:53:50;;;;;;;32.83;26.67;;;;;;;7.83;100.00;101913.50;2072397;28;20839;-63
2023/03/03 00:54:51;;;;;;;32.07;26.23;;;;;;;7.73;100.00;101900.41;2071777;28;20488;-64
2023/03/03 00:55:52;;;;;;;36.03;26.37;;;;;;;7.77;100.00;101906.75;2065847;28;20188;-63
2023/03/03 00:56:53;;;;;;;31.17;26.97;;;;;;;7.77;100.00;101907.56;2070597;28;20223;-63
2023/03/03 00:57:53;;;;;;;34.77;27.00;;;;;;;7.77;100.00;101904.81;2070666;28;20906;-63
2023/03/03 00:58:54;;;;;;;32.83;27.07;;;;;;;7.75;100.00;101898.84;2073301;28;20270;-63
2023/03/03 00:59:54;;;;;;;32.07;26.90;;;;;;;7.79;100.00;101905.22;2073290;28;20209;-63
2023/03/03 01:00:55;;;;;;;32.47;26.80;;;;;;;7.78;100.00;101900.88;2070054;28;20337;-63
2023/03/03 01:01:55;;;;;;;31.17;26.93;;;;;;;7.79;100.00;101902.44;2073232;28;20196;-63
2023/03/03 01:03:00;;;;;;;30.83;26.57;;;;;;;7.76;100.00;101897.72;2069723;28;20199;-63
2023/03/03 01:04:01;;;;;;;32.73;26.87;;;;;;;7.38;100.00;101839.47;2067330;28;20292;-63
2023/03/03 01:05:01;;;;;;;33.00;26.80;;;;;;;7.79;100.00;101896.94;2073062;28;20411;-63
2023/03/03 01:06:02;;;;;;;31.10;26.47;;;;;;;7.80;100.00;101895.75;2068063;28;20184;-63
2023/03/03 01:07:02;;;;;;;30.83;25.70;;;;;;;7.77;100.00;101891.00;2070693;28;20192;-63
2023/03/03 01:08:04;;;;;;;32.70;26.83;;;;;;;7.59;100.00;101859.72;2073092;28;20678;-63
2023/03/03 01:09:04;;;;;;;31.13;26.53;;;;;;;7.75;100.00;101893.34;2068689;28;20218;-63
2023/03/03 01:10:05;;;;;;;28.93;25.67;;;;;;;7.39;100.00;101843.81;2069383;28;20454;-63
2023/03/03 01:11:15;;;;;;;31.93;25.83;;;;;;;7.74;100.00;101891.00;2072422;28;20209;-63
2023/03/03 01:12:15;;;;;;;30.17;25.33;;;;;;;7.72;100.00;101894.13;2070576;28;20198;-63
2023/03/03 01:13:17;;;;;;;28.97;25.47;;;;;;;7.75;100.00;101889.81;2072766;28;20223;-63
2023/03/03 01:14:18;;;;;;;31.37;26.20;;;;;;;7.72;100.00;101879.53;2072875;28;20674;-63
2023/03/03 01:15:18;;;;;;;30.07;26.27;;;;;;;7.27;100.00;101817.31;2068008;28;20502;-63
2023/03/03 01:16:20;;;;;;;29.47;24.53;;;;;;;7.62;100.00;101880.22;2066545;28;20187;-63
2023/03/03 01:17:20;;;;;;;29.98;25.77;;;;;;;7.76;100.00;101892.19;2070975;28;20578;-63
2023/03/03 01:18:21;;;;;;;30.73;25.23;;;;;;;7.75;100.00;101889.81;2072808;28;20266;-64
2023/03/03 01:19:21;;;;;;;28.20;24.67;;;;;;;7.07;100.00;101782.84;2067155;28;20197;-63
2023/03/03 01:20:22;;;;;;;30.47;25.80;;;;;;;7.77;100.00;101888.25;2071338;28;20230;-63
2023/03/03 01:21:22;;;;;;;33.63;25.30;;;;;;;7.08;100.00;101786.44;2069326;28;20200;-63
2023/03/03 01:22:23;;;;;;;30.33;25.80;;;;;;;7.76;100.00;101888.63;2072908;28;20206;-64
2023/03/03 01:23:23;;;;;;;31.40;24.50;;;;;;;7.73;100.00;101886.63;2079649;28;20251;-64
2023/03/03 01:24:24;;;;;;;32.53;26.77;;;;;;;7.73;100.00;101879.16;2073240;28;20488;-63
2023/03/03 01:25:24;;;;;;;29.77;25.67;;;;;;;7.73;100.00;101878.34;2065279;28;20181;-63
2023/03/03 01:26:25;;;;;;;30.80;25.83;;;;;;;7.73;100.00;101878.34;2070218;28;20619;-63
2023/03/03 01:27:27;;;;;;;32.43;26.33;;;;;;;7.74;100.00;101880.72;2072724;28;20180;-63
2023/03/03 01:28:27;;;;;;;30.33;26.17;;;;;;;7.73;100.00;101875.59;2073056;28;20197;-63
2023/03/03 01:29:28;;;;;;;28.43;25.13;;;;;;;7.71;100.00;101880.72;2072877;28;21012;-63
2023/03/03 01:30:29;;;;;;;30.13;25.57;;;;;;;7.70;100.00;101876.38;2072452;28;20737;-63
2023/03/03 01:31:30;;;;;;;31.60;25.90;;;;;;;7.68;100.00;101878.72;2073014;28;20405;-63
2023/03/03 01:32:30;;;;;;;31.33;25.93;;;;;;;7.64;100.00;101873.16;2065141;28;20186;-63
2023/03/03 01:33:32;;;;;;;31.50;26.93;;;;;;;7.64;100.00;101873.16;2073222;28;20180;-64
2023/03/03 01:34:33;;;;;;;29.53;25.93;;;;;;;7.30;100.00;101815.75;2070429;28;20206;-63
2023/03/03 01:35:35;;;;;;;32.27;26.33;;;;;;;7.41;100.00;101858.00;2070006;28;20487;-63
2023/03/03 01:36:36;;;;;;;31.70;26.70;;;;;;;7.50;100.00;101866.75;2070743;28;20201;-64
2023/03/03 01:37:36;;;;;;;30.53;26.20;;;;;;;7.49;100.00;101867.91;2072932;28;20200;-63
2023/03/03 01:38:38;;;;;;;32.37;26.23;;;;;;;7.51;100.00;101862.81;2072145;28;20431;-64
2023/03/03 01:39:38;;;;;;;30.60;25.75;;;;;;;7.50;100.00;101866.75;2066428;28;20173;-64
2023/03/03 01:40:39;;;;;;;30.20;25.60;;;;;;;7.29;100.00;101834.25;2068118;28;20197;-63
2023/03/03 01:41:40;;;;;;;30.98;25.48;;;;;;;7.47;100.00;101867.50;2072920;28;20187;-64
2023/03/03 01:42:40;;;;;;;30.67;26.57;;;;;;;7.46;100.00;101863.97;2065297;28;20659;-63
2023/03/03 01:43:46;;;;;;;31.77;26.10;;;;;;;7.44;100.00;101869.03;2071853;28;20282;-64
2023/03/03 01:44:47;;;;;;;32.03;26.15;;;;;;;7.00;100.00;101790.28;2071018;28;20683;-63
2023/03/03 01:45:47;;;;;;;29.57;25.27;;;;;;;7.49;100.00;101859.66;2068266;28;20630;-63
2023/03/03 01:46:56;;;;;;;30.67;25.70;;;;;;;7.50;100.00;101861.22;2064786;28;20201;-64
2023/03/03 01:48:31;;;;;;;29.27;24.43;;;;;;;7.53;100.00;101868.75;2070064;28;20291;-64
2023/03/03 01:49:57;;;;;;;31.40;24.58;;;;;;;7.50;100.00;101862.03;2070187;28;20962;-63
2023/03/03 01:51:32;;;;;;;28.08;23.30;;;;;;;7.48;100.00;101864.34;2067200;28;20208;-63
2023/03/03 01:52:34;;;;;;;29.25;24.27;;;;;;;7.47;100.00;101865.53;2068473;28;20214;-64
2023/03/03 01:53:43;;;;;;;32.83;25.70;;;;;;;7.52;100.00;101859.66;2066829;28;20228;-64
2023/03/03 01:54:52;;;;;;;29.52;24.67;;;;;;;7.52;100.00;101862.44;2068715;28;20240;-63
2023/03/03 01:55:53;;;;;;;29.60;24.77;;;;;;;7.53;100.00;101861.25;2070245;28;20631;-64
2023/03/03 01:56:58;;;;;;;29.47;25.20;;;;;;;7.55;100.00;101858.91;2069683;28;22103;-64
2023/03/03 01:58:14;;;;;;;31.45;25.67;;;;;;;7.56;100.00;101856.94;2069906;28;20870;-63
2023/03/03 01:59:18;;;;;;;30.92;25.95;;;;;;;7.51;100.00;101860.03;2072701;28;20306;-63
2023/03/03 02:00:19;;;;;;;31.77;26.50;;;;;;;7.54;100.00;101851.78;2069780;28;20177;-63
2023/03/03 02:01:25;;;;;;;38.73;26.43;;;;;;;7.54;100.00;101851.03;2066210;28;20415;-63
2023/03/03 02:02:27;;;;;;;33.43;26.67;;;;;;;7.55;100.00;101855.34;2072023;28;20715;-63
2023/03/03 02:03:28;;;;;;;30.92;26.70;;;;;;;7.43;100.00;101842.66;2071639;28;20450;-63
2023/03/03 02:04:29;;;;;;;33.73;27.10;;;;;;;7.58;100.00;101863.66;2072585;28;20213;-64
2023/03/03 02:05:30;;;;;;;32.13;26.93;;;;;;;7.58;100.00;101863.66;2072953;28;20509;-64
2023/03/03 02:06:37;;;;;;;30.73;26.33;;;;;;;7.59;100.00;101856.97;2071570;28;20730;-63
2023/03/03 02:07:38;;;;;;;28.80;25.15;;;;;;;6.85;100.00;101745.28;2070457;28;20649;-63
2023/03/03 02:09:03;;;;;;;32.20;26.00;;;;;;;5.89;100.00;101585.03;2070223;28;20769;-63
2023/03/03 02:10:12;;;;;;;35.08;27.13;;;;;;;7.53;100.00;101852.97;2069961;28;20705;-63
2023/03/03 02:11:15;;;;;;;33.80;27.50;;;;;;;7.43;100.00;101837.13;2072954;28;20596;-63
2023/03/03 02:12:18;;;;;;;32.00;26.58;;;;;;;7.47;100.00;101850.94;2066538;28;20248;-63
2023/03/03 02:13:19;;;;;;;31.95;26.95;;;;;;;6.66;100.00;101719.91;2064774;28;20204;-63
2023/03/03 02:14:19;;;;;;;31.93;26.10;;;;;;;7.47;100.00;101849.00;2065871;28;20196;-63
2023/03/03 02:15:31;;;;;;;32.40;26.13;;;;;;;7.57;100.00;101851.03;2070103;28;20206;-64
2023/03/03 02:16:31;;;;;;;29.67;24.75;;;;;;;7.60;100.00;101847.53;2068376;28;20343;-63
2023/03/03 02:17:32;;;;;;;30.90;25.10;;;;;;;7.60;100.00;101847.53;2065744;28;20199;-63
2023/03/03 02:18:32;;;;;;;35.03;26.33;;;;;;;7.61;100.00;101840.84;2072257;28;20232;-64
2023/03/03 02:19:51;;;;;;;36.77;26.57;;;;;;;7.64;100.00;101842.81;2072847;28;20592;-63
2023/03/03 02:21:26;;;;;;;30.20;24.48;;;;;;;7.65;100.00;101840.84;2071931;28;20174;-63
2023/03/03 02:22:52;;;;;;;31.95;25.52;;;;;;;7.64;100.00;101845.56;2068454;28;20200;-63
2023/03/03 02:24:13;;;;;;;32.90;26.85;;;;;;;7.63;100.00;101840.47;2065292;28;20237;-64
2023/03/03 02:25:22;;;;;;;32.63;26.63;;;;;;;7.60;100.00;101835.69;2069967;28;20174;-63
2023/03/03 02:26:35;;;;;;;31.77;26.33;;;;;;;7.60;100.00;101833.75;2081216;28;20652;-63
2023/03/03 02:27:36;;;;;;;31.45;26.15;;;;;;;7.57;100.00;101828.97;2064246;28;20546;-64
2023/03/03 02:28:38;;;;;;;33.20;26.27;;;;;;;7.52;100.00;101832.09;2066716;28;20228;-64
2023/03/03 02:29:39;;;;;;;31.00;25.77;;;;;;;7.52;100.00;101831.28;2072604;28;20201;-64
2023/03/03 02:30:40;;;;;;;30.83;25.90;;;;;;;7.02;100.00;101755.66;2065894;28;20232;-63
2023/03/03 02:31:41;;;;;;;31.23;27.23;;;;;;;7.50;100.00;101831.69;2068544;28;20227;-64
2023/03/03 02:32:42;;;;;;;32.72;26.95;;;;;;;7.46;100.00;101830.06;2067285;28;20208;-64
2023/03/03 02:33:45;;;;;;;31.23;27.13;;;;;;;7.46;100.00;101835.56;2063668;28;20201;-63
2023/03/03 02:34:51;;;;;;;32.97;27.38;;;;;;;7.35;100.00;101813.44;2066848;28;20560;-64
2023/03/03 02:35:52;;;;;;;33.42;26.92;;;;;;;7.45;100.00;101834.00;2070097;28;20185;-63
2023/03/03 02:36:52;;;;;;;31.83;27.30;;;;;;;7.45;100.00;101831.25;2065184;28;20222;-63
2023/03/03 02:37:57;;;;;;;32.03;26.63;;;;;;;6.98;100.00;101759.56;2070937;28;20436;-64
2023/03/03 02:39:18;;;;;;;32.45;26.73;;;;;;;7.51;100.00;101832.47;2068213;28;20204;-63
2023/03/03 02:40:23;;;;;;;32.65;25.70;;;;;;;7.55;100.00;101838.81;2064654;28;20747;-64
2023/03/03 02:41:29;;;;;;;29.77;25.13;;;;;;;7.57;100.00;101836.44;2072653;28;20220;-64
2023/03/03 02:42:30;;;;;;;31.08;26.20;;;;;;;7.57;100.00;101830.94;2064756;28;20193;-63
2023/03/03 02:43:47;;;;;;;30.08;25.13;;;;;;;6.46;100.00;101653.22;2064510;28;20186;-63
2023/03/03 02:44:47;;;;;;;30.33;25.00;;;;;;;7.54;100.00;101832.47;2064646;28;20167;-64
2023/03/03 02:45:48;;;;;;;27.50;24.27;;;;;;;7.56;100.00;101832.09;2070596;28;20194;-63
2023/03/03 02:46:50;;;;;;;30.27;26.43;;;;;;;7.57;100.00;101833.69;2070448;28;20190;-64
2023/03/03 02:47:51;;;;;;;32.67;25.52;;;;;;;7.60;100.00;101853.06;2068307;28;20283;-63
2023/03/03 02:48:51;;;;;;;29.47;25.60;;;;;;;7.63;100.00;101826.66;2068464;28;20192;-63
2023/03/03 02:49:52;;;;;;;33.13;25.40;;;;;;;7.60;100.00;101830.97;2064378;28;20228;-63
2023/03/03 02:50:52;;;;;;;31.00;25.27;;;;;;;7.53;100.00;101825.38;2065683;28;20853;-63
2023/03/03 02:51:54;;;;;;;29.47;25.03;;;;;;;7.59;100.00;101823.06;2072594;28;20181;-63
2023/03/03 02:52:54;;;;;;;30.80;24.90;;;;;;;7.59;100.00;101818.34;2080887;28;20685;-64
2023/03/03 02:53:55;;;;;;;28.63;25.03;;;;;;;7.60;100.00;101825.47;2079098;28;20554;-63
2023/03/03 02:54:55;;;;;;;29.27;24.17;;;;;;;7.56;100.00;101818.31;2079820;28;20202;-63
2023/03/03 02:55:56;;;;;;;30.40;25.83;;;;;;;7.65;100.00;101824.31;2079695;28;20204;-63
2023/03/03 02:56:57;;;;;;;28.97;24.13;;;;;;;7.64;100.00;101823.50;2079809;28;20215;-63
2023/03/03 02:57:58;;;;;;;29.08;25.95;;;;;;;7.61;100.00;101829.00;2079731;28;20244;-64
2023/03/03 02:58:59;;;;;;;29.80;24.65;;;;;;;7.65;100.00;101819.59;2080714;28;20187;-64
2023/03/03 03:00:00;;;;;;;30.23;24.60;;;;;;;7.67;100.00;101824.69;2072043;28;20205;-63
2023/03/03 03:01:00;;;;;;;29.77;25.77;;;;;;;7.58;100.00;101827.03;2071005;28;20189;-64
2023/03/03 03:02:01;;;;;;;29.87;25.40;;;;;;;7.64;100.00;101819.97;2075766;28;20594;-63
2023/03/03 03:03:01;;;;;;;28.33;24.27;;;;;;;7.64;100.00;101819.97;2077270;28;20545;-63
2023/03/03 03:04:08;;;;;;;28.73;24.70;;;;;;;7.65;100.00;101825.09;2072223;28;20185;-63
2023/03/03 03:05:08;;;;;;;31.75;25.85;;;;;;;6.84;100.00;101682.28;2080015;28;20650;-63
2023/03/03 03:06:09;;;;;;;29.27;24.77;;;;;;;7.70;100.00;101821.97;2080601;28;20266;-63
2023/03/03 03:07:10;;;;;;;29.93;24.73;;;;;;;7.73;100.00;101825.91;2073040;28;20862;-63
2023/03/03 03:08:11;;;;;;;29.75;24.88;;;;;;;7.77;100.00;101818.47;2076652;28;20197;-63
2023/03/03 03:09:31;;;;;;;31.07;24.90;;;;;;;7.72;100.00;101816.88;2079449;28;20185;-63
2023/03/03 03:10:31;;;;;;;28.85;24.77;;;;;;;7.71;100.00;101812.53;2071851;28;20682;-63
2023/03/03 03:11:34;;;;;;;29.93;24.43;;;;;;;7.65;100.00;101822.34;2069082;28;20557;-63
2023/03/03 03:12:34;;;;;;;30.35;25.05;;;;;;;7.65;100.00;101819.59;2063336;28;20221;-63
2023/03/03 03:13:35;;;;;;;29.57;25.17;;;;;;;7.71;100.00;101817.25;2064326;28;20182;-63
2023/03/03 03:14:35;;;;;;;31.43;25.27;;;;;;;7.74;100.00;101816.50;2079279;28;20227;-63
2023/03/03 03:15:35;;;;;;;29.67;24.80;;;;;;;7.68;100.00;101799.47;2079280;28;20268;-63
2023/03/03 03:16:36;;;;;;;27.63;23.43;;;;;;;7.73;100.00;101823.97;2070457;28;20197;-64
2023/03/03 03:17:37;;;;;;;26.73;23.53;;;;;;;7.73;100.00;101825.91;2066358;28;20216;-64
2023/03/03 03:18:38;;;;;;;30.27;25.02;;;;;;;7.69;100.00;101816.84;2072453;28;20174;-64
2023/03/03 03:19:38;;;;;;;29.97;24.07;;;;;;;7.71;100.00;101818.03;2080819;28;20184;-63
2023/03/03 03:20:40;;;;;;;26.97;23.53;;;;;;;7.68;100.00;101812.50;2071158;28;20189;-63
2023/03/03 03:21:40;;;;;;;29.65;24.35;;;;;;;7.59;100.00;101807.31;2071605;28;20184;-63
2023/03/03 03:22:41;;;;;;;31.00;24.30;;;;;;;7.72;100.00;101814.09;2071481;28;20686;-64
2023/03/03 03:23:41;;;;;;;30.87;24.27;;;;;;;7.78;100.00;101811.75;2068434;28;20225;-63
2023/03/03 03:24:42;;;;;;;32.07;24.73;;;;;;;7.77;100.00;101805.47;2065471;28;20589;-63
2023/03/03 03:25:45;;;;;;;29.80;23.67;;;;;;;7.77;100.00;101810.19;2080584;28;20173;-64
2023/03/03 03:26:46;;;;;;;27.50;23.98;;;;;;;7.73;100.00;101798.31;2072254;28;20194;-63
2023/03/03 03:27:46;;;;;;;29.30;24.40;;;;;;;7.70;100.00;101802.63;2071739;28;20679;-63
2023/03/03 03:28:48;;;;;;;29.50;23.90;;;;;;;7.73;100.00;101801.09;2071818;28;20217;-63
2023/03/03 03:29:48;;;;;;;29.30;24.80;;;;;;;7.67;100.00;101788.81;2072438;28;20457;-63
2023/03/03 03:30:50;;;;;;;26.97;24.07;;;;;;;7.69;100.00;101822.38;2069547;28;20233;-63
2023/03/03 03:31:50;;;;;;;26.85;23.42;;;;;;;7.69;100.00;101800.28;2065652;28;20175;-64
2023/03/03 03:32:51;;;;;;;26.90;23.57;;;;;;;7.73;100.00;101798.31;2072077;28;20174;-64
2023/03/03 03:33:51;;;;;;;28.87;24.20;;;;;;;7.57;100.00;101779.31;2063342;28;20179;-63
2023/03/03 03:34:52;;;;;;;28.40;22.93;;;;;;;6.98;100.00;101688.69;2070966;28;20197;-64
2023/03/03 03:35:54;;;;;;;31.07;23.90;;;;;;;7.65;100.00;101785.69;2066226;28;20677;-63
2023/03/03 03:36:54;;;;;;;29.00;23.83;;;;;;;7.17;100.00;101734.53;2069658;28;20182;-64
2023/03/03 03:37:55;;;;;;;26.50;23.33;;;;;;;7.69;100.00;101801.06;2068253;28;20198;-63
2023/03/03 03:38:55;;;;;;;29.93;24.50;;;;;;;7.69;100.00;101797.53;2067100;28;20782;-64
2023/03/03 03:39:56;;;;;;;28.33;23.60;;;;;;;7.69;100.00;101797.53;2070576;28;20177;-63
2023/03/03 03:40:57;;;;;;;29.23;24.10;;;;;;;7.63;100.00;101779.75;2068883;28;20171;-64
2023/03/03 03:41:57;;;;;;;28.80;24.43;;;;;;;7.74;100.00;101802.69;2072584;28;20228;-63
2023/03/03 03:42:57;;;;;;;28.90;24.00;;;;;;;7.77;100.00;101801.91;2064826;28;20489;-63
2023/03/03 03:43:58;;;;;;;27.00;23.37;;;;;;;7.55;100.00;101773.41;2070448;28;20710;-63
2023/03/03 03:44:58;;;;;;;30.10;24.37;;;;;;;7.80;100.00;101790.09;2067064;28;20775;-63
2023/03/03 03:45:59;;;;;;;29.83;23.87;;;;;;;7.41;100.00;101739.41;2069411;28;20204;-64
2023/03/03 03:46:59;;;;;;;29.53;24.67;;;;;;;7.02;100.00;101680.47;2073215;28;20344;-63
2023/03/03 03:48:00;;;;;;;28.40;23.67;;;;;;;7.75;100.00;101790.47;2073395;28;20270;-63
2023/03/03 03:49:00;;;;;;;29.10;24.63;;;;;;;7.75;100.00;101796.00;2073938;28;20201;-63
2023/03/03 03:50:00;;;;;;;29.20;24.90;;;;;;;7.74;100.00;101788.88;2074280;28;20567;-63
2023/03/03 03:51:01;;;;;;;31.30;24.43;;;;;;;7.76;100.00;101790.09;2073476;28;20221;-63
2023/03/03 03:52:01;;;;;;;30.77;24.30;;;;;;;7.78;100.00;101796.00;2067393;28;20226;-63
2023/03/03 03:53:02;;;;;;;28.80;24.03;;;;;;;7.78;100.00;101789.69;2071379;28;20186;-63
2023/03/03 03:54:02;;;;;;;30.27;25.47;;;;;;;7.76;100.00;101792.84;2069177;28;20194;-64
2023/03/03 03:55:04;;;;;;;28.83;23.73;;;;;;;7.77;100.00;101793.63;2069230;28;20192;-63
2023/03/03 03:56:05;;;;;;;29.02;24.75;;;;;;;7.80;100.00;101796.41;2073740;28;20209;-63
2023/03/03 03:57:05;;;;;;;30.80;24.90;;;;;;;7.77;100.00;101790.88;2074032;28;20177;-64
2023/03/03 03:58:06;;;;;;;29.83;25.07;;;;;;;7.76;100.00;101781.00;2073596;28;20261;-63
2023/03/03 03:59:07;;;;;;;28.57;24.17;;;;;;;7.18;100.00;101692.00;2065978;28;20618;-63
2023/03/03 04:00:09;;;;;;;29.38;23.95;;;;;;;7.79;100.00;101783.78;2072796;28;20675;-64
2023/03/03 04:01:10;;;;;;;26.73;22.80;;;;;;;7.78;100.00;101778.66;2073940;28;20275;-64
2023/03/03 04:02:10;;;;;;;31.37;23.43;;;;;;;7.65;100.00;101752.56;2068478;28;20277;-63
2023/03/03 04:03:11;;;;;;;30.43;25.87;;;;;;;7.78;100.00;101778.66;2070033;28;20251;-63
2023/03/03 04:04:11;;;;;;;29.80;23.17;;;;;;;7.74;100.00;101777.84;2070397;28;20342;-63
2023/03/03 04:05:11;;;;;;;28.10;24.63;;;;;;;7.73;100.00;101776.25;2067774;28;20176;-63
2023/03/03 04:06:12;;;;;;;28.43;24.57;;;;;;;7.76;100.00;101775.50;2072964;28;20178;-63
2023/03/03 04:07:12;;;;;;;28.07;24.27;;;;;;;7.66;100.00;101774.25;2066009;28;20232;-63
2023/03/03 04:08:13;;;;;;;28.67;24.37;;;;;;;7.72;100.00;101781.00;2073377;28;20197;-63
2023/03/03 04:09:14;;;;;;;29.80;24.70;;;;;;;7.73;100.00;101779.00;2067328;28;20678;-63
2023/03/03 04:10:16;;;;;;;29.30;25.05;;;;;;;7.01;100.00;101663.13;2070911;28;20185;-63
2023/03/03 04:11:17;;;;;;;30.77;24.70;;;;;;;7.72;100.00;101775.47;2073864;28;20238;-63
2023/03/03 04:12:17;;;;;;;33.93;25.07;;;;;;;7.71;100.00;101776.66;2073832;28;20213;-63
2023/03/03 04:13:18;;;;;;;36.33;25.63;;;;;;;7.70;100.00;101785.31;2071223;28;20178;-63
2023/03/03 04:14:18;;;;;;;32.50;25.70;;;;;;;7.68;100.00;101771.91;2066855;28;20170;-63
2023/03/03 04:15:18;;;;;;;35.13;24.90;;;;;;;7.68;100.00;101777.41;2073081;28;20193;-63
2023/03/03 04:16:19;;;;;;;32.83;24.80;;;;;;;7.68;100.00;101793.19;2073253;28;20391;-63
2023/03/03 04:17:23;;;;;;;31.13;24.87;;;;;;;7.66;100.00;101771.50;2074143;28;20218;-63
2023/03/03 04:18:24;;;;;;;31.60;25.65;;;;;;;7.66;100.00;101773.47;2067149;28;20207;-64
2023/03/03 04:19:24;;;;;;;31.73;24.63;;;;;;;7.61;100.00;101771.06;2071400;28;20193;-63
2023/03/03 04:20:25;;;;;;;28.57;24.27;;;;;;;7.55;100.00;101778.13;2068904;28;20283;-63
2023/03/03 04:21:26;;;;;;;26.53;23.60;;;;;;;7.59;100.00;101773.41;2068924;28;20193;-64
2023/03/03 04:22:27;;;;;;;28.88;24.10;;;;;;;7.60;100.00;101773.03;2073532;28;20256;-63
2023/03/03 04:23:27;;;;;;;31.03;24.67;;;;;;;7.56;100.00;101774.19;2073672;28;20178;-63
2023/03/03 04:24:28;;;;;;;32.23;24.47;;;;;;;7.55;100.00;101775.38;2073695;28;20202;-63
2023/03/03 04:25:28;;;;;;;35.33;25.20;;;;;;;7.56;100.00;101779.69;2065859;28;20285;-63
2023/03/03 04:26:30;;;;;;;31.90;24.90;;;;;;;7.55;100.00;101776.16;2072662;28;20567;-63
2023/03/03 04:27:34;;;;;;;30.52;24.63;;;;;;;7.59;100.00;101776.19;2067764;28;20194;-64
2023/03/03 04:28:35;;;;;;;30.40;24.48;;;;;;;7.62;100.00;101784.47;2070933;28;20260;-63
2023/03/03 04:29:35;;;;;;;28.80;24.77;;;;;;;7.61;100.00;101780.13;2069546;28;20187;-63
2023/03/03 04:30:36;;;;;;;29.63;24.23;;;;;;;7.59;100.00;101765.91;2068111;28;20189;-63
2023/03/03 04:31:36;;;;;;;31.30;23.53;;;;;;;6.49;100.00;101599.34;2071836;28;20171;-63
2023/03/03 04:32:36;;;;;;;30.07;24.87;;;;;;;7.62;100.00;101776.19;2066468;28;20186;-63
2023/03/03 04:33:37;;;;;;;29.40;24.53;;;;;;;7.55;100.00;101759.63;2073512;28;20171;-63
2023/03/03 04:34:37;;;;;;;27.67;23.40;;;;;;;6.62;100.00;101631.72;2065762;28;20707;-64
2023/03/03 04:35:38;;;;;;;29.77;23.07;;;;;;;7.40;100.00;101744.16;2072197;28;20571;-64
2023/03/03 04:36:38;;;;;;;28.87;23.90;;;;;;;6.71;100.00;101632.19;2068097;28;20266;-63
2023/03/03 04:37:39;;;;;;;28.73;24.27;;;;;;;7.52;100.00;101760.38;2069214;28;20261;-63
2023/03/03 04:38:39;;;;;;;29.23;24.43;;;;;;;7.57;100.00;101770.25;2073033;28;20279;-63
2023/03/03 04:39:40;;;;;;;28.83;24.23;;;;;;;7.21;100.00;101724.28;2073578;28;20179;-64
2023/03/03 04:40:40;;;;;;;28.93;24.27;;;;;;;7.57;100.00;101768.28;2072971;28;20252;-64
2023/03/03 04:41:41;;;;;;;29.20;24.07;;;;;;;6.86;100.00;101657.88;2073886;28;20257;-64
2023/03/03 04:42:41;;;;;;;29.70;24.37;;;;;;;7.54;100.00;101765.50;2073614;28;20220;-64
2023/03/03 04:43:42;;;;;;;27.40;22.83;;;;;;;7.53;100.00;101772.97;2073471;28;20182;-63
2023/03/03 04:44:43;;;;;;;29.17;23.87;;;;;;;7.50;100.00;101767.44;2067599;28;20214;-63
2023/03/03 04:45:43;;;;;;;28.87;23.47;;;;;;;7.49;100.00;101768.63;2069925;28;20269;-64